createdAt,value
2022-08-10T00:00:11.515Z,17.34
2022-08-10T00:01:11.533Z,17.31
2022-08-10T00:02:11.809Z,17.31
2022-08-10T00:03:12.387Z,17.28
2022-08-10T00:04:21.510Z,17.26
2022-08-10T00:05:12.740Z,17.25
2022-08-10T00:06:11.432Z,17.22
2022-08-10T00:07:11.347Z,17.25
2022-08-10T00:08:11.378Z,17.21
2022-08-10T00:09:12.323Z,17.21
2022-08-10T00:10:11.315Z,17.18
2022-08-10T00:11:15.339Z,17.14
2022-08-10T00:12:12.255Z,17.11
2022-08-10T00:13:11.263Z,17.07
2022-08-10T00:14:11.226Z,17.06
2022-08-10T00:15:11.271Z,17.03
2022-08-10T00:16:12.226Z,17.00
2022-08-10T00:17:11.264Z,16.98
2022-08-10T00:18:11.208Z,16.96
2022-08-10T00:19:12.242Z,16.93
2022-08-10T00:20:11.233Z,16.91
2022-08-10T00:21:11.173Z,16.88
2022-08-10T00:22:11.200Z,16.88
2022-08-10T00:23:12.147Z,16.82
2022-08-10T00:24:11.126Z,16.82
2022-08-10T00:25:11.489Z,16.81
2022-08-10T00:26:11.131Z,16.78
2022-08-10T00:27:53.034Z,16.75
2022-08-10T00:28:12.103Z,16.71
2022-08-10T00:29:11.977Z,16.71
2022-08-10T00:30:11.091Z,16.67
2022-08-10T00:31:11.048Z,16.67
2022-08-10T00:32:11.073Z,16.66
2022-08-10T00:33:11.041Z,16.63
2022-08-10T00:34:11.023Z,16.64
2022-08-10T00:35:11.129Z,16.63
2022-08-10T00:36:11.004Z,16.61
2022-08-10T00:37:11.050Z,16.58
2022-08-10T00:38:10.985Z,16.56
2022-08-10T00:39:13.748Z,16.56
2022-08-10T00:40:11.983Z,16.52
2022-08-10T00:41:10.964Z,16.52
2022-08-10T00:42:11.116Z,16.50
2022-08-10T00:43:10.948Z,16.48
2022-08-10T00:44:10.947Z,16.46
2022-08-10T00:45:10.925Z,16.43
2022-08-10T00:46:11.252Z,16.41
2022-08-10T00:47:22.570Z,16.38
2022-08-10T00:48:11.894Z,16.35
2022-08-10T00:49:10.893Z,16.31
2022-08-10T00:50:10.879Z,16.27
2022-08-10T00:51:11.839Z,16.23
2022-08-10T00:52:11.380Z,16.23
2022-08-10T00:53:11.276Z,16.20
2022-08-10T00:54:24.126Z,16.14
2022-08-10T00:55:11.968Z,16.11
2022-08-10T00:57:10.091Z,16.09
2022-08-10T00:57:16.020Z,16.07
2022-08-10T00:58:11.897Z,16.04
2022-08-10T00:59:11.006Z,16.02
2022-08-10T01:00:11.355Z,16.00
2022-08-10T01:02:07.438Z,15.96
2022-08-10T01:02:14.739Z,15.97
2022-08-10T01:03:10.923Z,15.94
2022-08-10T01:04:36.283Z,15.94
2022-08-10T01:05:12.117Z,15.93
2022-08-10T01:06:10.948Z,15.92
2022-08-10T01:07:10.783Z,15.90
2022-08-10T01:08:10.831Z,15.86
2022-08-10T01:09:10.797Z,15.86
2022-08-10T01:10:11.754Z,15.83
2022-08-10T01:12:28.604Z,15.82
2022-08-10T01:12:40.841Z,15.78
2022-08-10T01:13:11.738Z,15.71
2022-08-10T01:14:11.069Z,15.67
2022-08-10T01:15:13.732Z,15.67
2022-08-10T01:16:13.296Z,15.64
2022-08-10T01:17:10.946Z,15.64
2022-08-10T01:18:10.796Z,15.65
2022-08-10T01:19:10.938Z,15.67
2022-08-10T01:20:11.474Z,15.62
2022-08-10T01:21:11.763Z,15.60
2022-08-10T01:22:11.209Z,15.60
2022-08-10T01:23:17.642Z,15.59
2022-08-10T01:24:12.528Z,15.56
2022-08-10T01:25:10.999Z,15.56
2022-08-10T01:26:30.347Z,15.56
2022-08-10T01:27:11.893Z,15.53
2022-08-10T01:28:10.713Z,15.53
2022-08-10T01:29:11.203Z,15.51
2022-08-10T01:30:10.998Z,15.51
2022-08-10T01:31:13.241Z,15.50
2022-08-10T01:32:10.818Z,15.51
2022-08-10T01:33:10.702Z,15.51
2022-08-10T01:34:11.561Z,15.50
2022-08-10T01:35:10.570Z,15.50
2022-08-10T01:36:10.603Z,15.49
2022-08-10T01:37:10.719Z,15.47
2022-08-10T01:38:10.791Z,15.47
2022-08-10T01:39:10.696Z,15.47
2022-08-10T01:40:10.616Z,15.46
2022-08-10T01:41:10.522Z,15.43
2022-08-10T01:42:10.992Z,15.38
2022-08-10T01:43:12.623Z,15.39
2022-08-10T01:44:10.426Z,15.41
2022-08-10T01:45:10.290Z,15.44
2022-08-10T01:46:10.373Z,15.46
2022-08-10T01:47:10.821Z,15.44
2022-08-10T01:48:16.374Z,15.43
2022-08-10T01:49:12.018Z,15.41
2022-08-10T01:50:10.341Z,15.39
2022-08-10T01:51:10.231Z,15.35
2022-08-10T01:52:10.273Z,15.34
2022-08-10T01:53:11.408Z,15.32
2022-08-10T01:54:13.012Z,15.29
2022-08-10T01:55:11.415Z,15.29
2022-08-10T01:56:10.514Z,15.27
2022-08-10T01:57:10.999Z,15.23
2022-08-10T01:58:11.318Z,15.19
2022-08-10T01:59:10.842Z,15.14
2022-08-10T02:00:10.142Z,15.13
2022-08-10T02:01:10.152Z,15.11
2022-08-10T02:02:10.316Z,15.13
2022-08-10T02:03:10.271Z,15.13
2022-08-10T02:04:10.131Z,15.11
2022-08-10T02:05:10.086Z,15.13
2022-08-10T02:06:10.078Z,15.16
2022-08-10T02:07:10.139Z,15.17
2022-08-10T02:08:10.146Z,15.17
2022-08-10T02:09:10.132Z,15.13
2022-08-10T02:10:10.249Z,15.10
2022-08-10T02:11:10.018Z,15.07
2022-08-10T02:12:09.979Z,15.07
2022-08-10T02:13:11.049Z,15.03
2022-08-10T02:14:10.072Z,15.03
2022-08-10T02:15:10.330Z,14.99
2022-08-10T02:16:09.943Z,15.01
2022-08-10T02:17:58.375Z,14.99
2022-08-10T02:18:10.934Z,14.96
2022-08-10T02:19:10.104Z,14.96
2022-08-10T02:20:10.399Z,14.94
2022-08-10T02:21:13.135Z,14.92
2022-08-10T02:22:36.090Z,14.91
2022-08-10T02:23:10.889Z,14.84
2022-08-10T02:24:09.988Z,14.86
2022-08-10T02:25:09.968Z,14.84
2022-08-10T02:26:11.432Z,14.83
2022-08-10T02:27:10.108Z,14.83
2022-08-10T02:28:09.978Z,14.84
2022-08-10T02:29:10.413Z,14.84
2022-08-10T02:30:10.158Z,14.84
2022-08-10T02:31:11.781Z,14.83
2022-08-10T02:32:09.871Z,14.83
2022-08-10T02:33:09.856Z,14.80
2022-08-10T02:34:09.900Z,14.81
2022-08-10T02:35:17.786Z,14.81
2022-08-10T02:36:10.779Z,14.78
2022-08-10T02:37:10.946Z,14.78
2022-08-10T02:38:09.845Z,14.75
2022-08-10T02:39:10.045Z,14.73
2022-08-10T02:40:09.856Z,14.69
2022-08-10T02:45:02.551Z,14.65
2022-08-10T02:45:02.551Z,14.65
2022-08-10T02:45:20.367Z,14.62
2022-08-10T02:45:20.982Z,14.62
2022-08-10T02:45:24.230Z,14.64
2022-08-10T02:46:10.972Z,14.62
2022-08-10T02:47:09.932Z,14.61
2022-08-10T02:48:09.947Z,14.58
2022-08-10T02:49:09.696Z,14.58
2022-08-10T02:50:10.162Z,14.55
2022-08-10T02:51:09.633Z,14.54
2022-08-10T02:52:09.693Z,14.52
2022-08-10T02:53:09.621Z,14.50
2022-08-10T02:54:10.498Z,14.47
2022-08-10T02:55:18.154Z,14.45
2022-08-10T02:56:10.525Z,14.42
2022-08-10T02:57:09.503Z,14.42
2022-08-10T02:58:15.289Z,14.40
2022-08-10T02:59:10.732Z,14.37
2022-08-10T03:00:10.223Z,14.36
2022-08-10T03:01:10.741Z,14.35
2022-08-10T03:02:09.696Z,14.32
2022-08-10T03:03:09.661Z,14.29
2022-08-10T03:04:09.420Z,14.28
2022-08-10T03:05:09.519Z,14.25
2022-08-10T03:06:09.419Z,14.25
2022-08-10T03:07:09.440Z,14.22
2022-08-10T03:08:09.469Z,14.22
2022-08-10T03:09:09.636Z,14.21
2022-08-10T03:10:14.322Z,14.18
2022-08-10T03:11:10.775Z,14.18
2022-08-10T03:12:37.805Z,14.15
2022-08-10T03:13:10.466Z,14.17
2022-08-10T03:14:09.469Z,14.17
2022-08-10T03:15:09.455Z,14.17
2022-08-10T03:16:11.497Z,14.17
2022-08-10T03:17:09.250Z,14.14
2022-08-10T03:18:09.314Z,14.14
2022-08-10T03:20:34.133Z,14.10
2022-08-10T03:20:37.686Z,14.06
2022-08-10T03:21:12.009Z,13.99
2022-08-10T03:22:09.444Z,13.99
2022-08-10T03:23:09.489Z,14.00
2022-08-10T03:24:26.193Z,13.97
2022-08-10T03:25:10.148Z,13.95
2022-08-10T03:26:09.211Z,13.92
2022-08-10T03:27:09.222Z,13.92
2022-08-10T03:28:09.238Z,13.92
2022-08-10T03:29:09.200Z,13.91
2022-08-10T03:30:29.601Z,13.91
2022-08-10T03:31:10.160Z,13.91
2022-08-10T03:32:09.167Z,13.91
2022-08-10T03:33:09.072Z,13.91
2022-08-10T03:34:22.192Z,13.91
2022-08-10T03:35:10.042Z,13.91
2022-08-10T03:36:41.909Z,13.88
2022-08-10T03:37:10.106Z,13.89
2022-08-10T03:38:09.095Z,13.87
2022-08-10T03:39:09.356Z,13.85
2022-08-10T03:40:09.117Z,13.84
2022-08-10T03:41:09.083Z,13.84
2022-08-10T03:42:08.943Z,13.85
2022-08-10T03:43:08.984Z,13.85
2022-08-10T03:44:08.955Z,13.84
2022-08-10T03:45:08.967Z,13.85
2022-08-10T03:46:09.290Z,13.82
2022-08-10T03:47:16.477Z,13.81
2022-08-10T03:48:09.894Z,13.77
2022-08-10T03:49:08.876Z,13.79
2022-08-10T03:50:25.939Z,13.82
2022-08-10T03:51:09.855Z,13.81
2022-08-10T03:52:08.833Z,13.79
2022-08-10T03:53:08.839Z,13.78
2022-08-10T03:54:09.809Z,13.79
2022-08-10T03:55:08.787Z,13.77
2022-08-10T03:56:30.232Z,13.73
2022-08-10T03:57:09.766Z,13.70
2022-08-10T03:58:08.779Z,13.70
2022-08-10T03:59:08.764Z,13.69
2022-08-10T04:00:08.794Z,13.69
2022-08-10T04:01:08.842Z,13.66
2022-08-10T04:02:52.005Z,13.66
2022-08-10T04:03:09.728Z,13.64
2022-08-10T04:04:10.756Z,13.62
2022-08-10T04:05:08.672Z,13.60
2022-08-10T04:06:08.689Z,13.60
2022-08-10T04:07:08.670Z,13.59
2022-08-10T04:08:08.655Z,13.59
2022-08-10T04:09:08.648Z,13.57
2022-08-10T04:10:13.191Z,13.59
2022-08-10T04:11:08.654Z,13.57
2022-08-10T04:12:08.666Z,13.54
2022-08-10T04:13:08.581Z,13.52
2022-08-10T04:14:38.773Z,13.51
2022-08-10T04:15:09.578Z,13.51
2022-08-10T04:16:08.579Z,13.51
2022-08-10T04:17:13.778Z,13.51
2022-08-10T04:18:09.530Z,13.48
2022-08-10T04:19:08.518Z,13.49
2022-08-10T04:20:08.520Z,13.48
2022-08-10T04:21:08.515Z,13.48
2022-08-10T04:22:08.522Z,13.49
2022-08-10T04:23:08.507Z,13.48
2022-08-10T04:24:08.499Z,13.48
2022-08-10T04:25:08.486Z,13.46
2022-08-10T04:26:08.496Z,13.46
2022-08-10T04:27:08.443Z,13.45
2022-08-10T04:28:08.434Z,13.48
2022-08-10T04:29:08.449Z,13.46
2022-08-10T04:30:08.451Z,13.46
2022-08-10T04:31:08.446Z,13.46
2022-08-10T04:32:08.387Z,13.45
2022-08-10T04:33:08.389Z,13.45
2022-08-10T04:34:08.787Z,13.45
2022-08-10T04:35:08.411Z,13.46
2022-08-10T04:36:08.391Z,13.49
2022-08-10T04:37:09.210Z,13.51
2022-08-10T04:38:08.334Z,13.52
2022-08-10T04:39:08.346Z,13.54
2022-08-10T04:40:28.243Z,13.55
2022-08-10T04:41:09.275Z,13.57
2022-08-10T04:42:08.294Z,13.57
2022-08-10T04:43:12.908Z,13.59
2022-08-10T04:44:09.243Z,13.66
2022-08-10T04:45:08.287Z,13.67
2022-08-10T04:46:42.797Z,13.69
2022-08-10T04:47:09.257Z,13.73
2022-08-10T04:48:08.219Z,13.75
2022-08-10T04:49:40.364Z,13.78
2022-08-10T04:50:09.182Z,13.81
2022-08-10T04:51:11.165Z,13.87
2022-08-10T04:52:09.187Z,13.87
2022-08-10T04:53:08.192Z,13.91
2022-08-10T04:54:08.727Z,13.91
2022-08-10T04:55:08.138Z,13.92
2022-08-10T04:56:08.139Z,13.97
2022-08-10T04:57:08.100Z,13.99
2022-08-10T04:58:08.131Z,14.03
2022-08-10T04:59:08.141Z,14.03
2022-08-10T05:00:18.013Z,14.07
2022-08-10T05:01:09.153Z,14.07
2022-08-10T05:02:21.892Z,14.12
2022-08-10T05:03:09.070Z,14.10
2022-08-10T05:04:36.023Z,14.14
2022-08-10T05:05:09.027Z,14.17
2022-08-10T05:06:08.051Z,14.15
2022-08-10T05:07:08.005Z,14.20
2022-08-10T05:08:08.512Z,14.22
2022-08-10T05:09:07.995Z,14.25
2022-08-10T05:10:11.603Z,14.28
2022-08-10T05:11:08.969Z,14.32
2022-08-10T05:12:07.963Z,14.35
2022-08-10T05:13:07.934Z,14.37
2022-08-10T05:14:07.969Z,14.40
2022-08-10T05:15:07.957Z,14.45
2022-08-10T05:16:07.911Z,14.46
2022-08-10T05:17:07.897Z,14.51
2022-08-10T05:18:09.531Z,14.55
2022-08-10T05:19:07.874Z,14.60
2022-08-10T05:20:08.236Z,14.65
2022-08-10T05:21:07.857Z,14.65
2022-08-10T05:22:07.879Z,14.70
2022-08-10T05:23:07.825Z,14.70
2022-08-10T05:24:07.840Z,14.78
2022-08-10T05:25:07.832Z,14.80
2022-08-10T05:26:07.807Z,14.81
2022-08-10T05:27:09.739Z,14.86
2022-08-10T05:28:07.791Z,14.88
2022-08-10T05:29:07.786Z,14.91
2022-08-10T05:30:07.794Z,14.91
2022-08-10T05:31:07.753Z,14.94
2022-08-10T05:32:07.734Z,14.98
2022-08-10T05:33:08.994Z,15.01
2022-08-10T05:34:20.379Z,15.07
2022-08-10T05:35:08.741Z,15.10
2022-08-10T05:36:07.720Z,15.11
2022-08-10T05:37:07.675Z,15.14
2022-08-10T05:38:14.295Z,15.17
2022-08-10T05:39:08.693Z,15.23
2022-08-10T05:40:07.663Z,15.27
2022-08-10T05:41:07.674Z,15.29
2022-08-10T05:42:07.665Z,15.34
2022-08-10T05:43:07.605Z,15.39
2022-08-10T05:44:07.622Z,15.46
2022-08-10T05:45:07.578Z,15.50
2022-08-10T05:46:17.840Z,15.56
2022-08-10T05:47:12.577Z,15.62
2022-08-10T05:48:55.067Z,15.68
2022-08-10T05:49:08.611Z,15.72
2022-08-10T05:50:07.538Z,15.82
2022-08-10T05:51:07.532Z,15.87
2022-08-10T05:52:07.521Z,15.92
2022-08-10T05:53:58.995Z,15.96
2022-08-10T05:54:08.506Z,16.01
2022-08-10T05:55:07.503Z,16.04
2022-08-10T05:56:07.506Z,16.09
2022-08-10T05:57:07.462Z,16.15
2022-08-10T05:58:07.498Z,16.21
2022-08-10T05:59:07.506Z,16.27
2022-08-10T06:00:34.771Z,16.34
2022-08-10T06:01:08.475Z,16.41
2022-08-10T06:02:32.489Z,16.46
2022-08-10T06:03:08.400Z,16.53
2022-08-10T06:04:07.392Z,16.58
2022-08-10T06:05:07.503Z,16.63
2022-08-10T06:06:07.381Z,16.70
2022-08-10T06:07:07.332Z,16.75
2022-08-10T06:08:07.356Z,16.79
2022-08-10T06:09:07.320Z,16.86
2022-08-10T06:10:10.177Z,16.93
2022-08-10T06:12:24.443Z,17.00
2022-08-10T06:12:35.259Z,17.04
2022-08-10T06:13:08.293Z,17.11
2022-08-10T06:14:16.094Z,17.14
2022-08-10T06:15:10.239Z,17.18
2022-08-10T06:16:08.266Z,17.21
2022-08-10T06:17:07.263Z,17.28
2022-08-10T06:18:07.225Z,17.30
2022-08-10T06:19:07.210Z,17.34
2022-08-10T06:20:07.364Z,17.37
2022-08-10T06:21:07.192Z,17.41
2022-08-10T06:22:07.189Z,17.44
2022-08-10T06:23:07.176Z,17.48
2022-08-10T06:24:07.176Z,17.54
2022-08-10T06:25:51.048Z,17.62
2022-08-10T06:26:12.213Z,17.64
2022-08-10T06:27:08.142Z,17.70
2022-08-10T06:28:07.176Z,17.75
2022-08-10T06:29:07.113Z,17.78
2022-08-10T06:30:20.411Z,17.86
2022-08-10T06:31:08.086Z,17.90
2022-08-10T06:32:07.069Z,17.93
2022-08-10T06:33:07.090Z,17.99
2022-08-10T06:34:07.061Z,18.03
2022-08-10T06:35:07.039Z,18.10
2022-08-10T06:36:07.024Z,18.14
2022-08-10T06:37:07.005Z,18.18
2022-08-10T06:38:07.017Z,18.23
2022-08-10T06:39:29.956Z,18.27
2022-08-10T06:40:08.031Z,18.33
2022-08-10T06:41:06.964Z,18.41
2022-08-10T06:42:15.847Z,18.45
2022-08-10T06:43:07.970Z,18.50
2022-08-10T06:44:06.974Z,18.54
2022-08-10T06:45:06.949Z,18.60
2022-08-10T06:46:08.646Z,18.70
2022-08-10T06:47:06.910Z,18.78
2022-08-10T06:48:06.891Z,18.84
2022-08-10T06:49:06.879Z,18.91
2022-08-10T06:50:08.827Z,18.94
2022-08-10T06:51:06.946Z,19.00
2022-08-10T06:52:06.874Z,19.08
2022-08-10T06:53:06.882Z,19.14
2022-08-10T06:54:06.848Z,19.19
2022-08-10T06:55:07.323Z,19.21
2022-08-10T06:56:06.883Z,19.25
2022-08-10T06:57:17.851Z,19.32
2022-08-10T06:58:07.831Z,19.40
2022-08-10T06:59:06.799Z,19.46
2022-08-10T07:00:07.804Z,19.50
2022-08-10T07:01:06.823Z,19.56
2022-08-10T07:02:06.803Z,19.62
2022-08-10T07:03:07.268Z,19.68
2022-08-10T07:04:08.065Z,19.71
2022-08-10T07:05:06.801Z,19.77
2022-08-10T07:06:06.701Z,19.83
2022-08-10T07:07:06.745Z,19.88
2022-08-10T07:08:06.866Z,19.95
2022-08-10T07:09:06.715Z,20.01
2022-08-10T07:10:06.717Z,20.08
2022-08-10T07:11:10.051Z,20.13
2022-08-10T07:12:09.163Z,20.21
2022-08-10T07:13:06.690Z,20.28
2022-08-10T07:14:16.123Z,20.32
2022-08-10T07:15:07.657Z,20.33
2022-08-10T07:16:06.683Z,20.38
2022-08-10T07:17:06.604Z,20.41
2022-08-10T07:18:06.607Z,20.48
2022-08-10T07:19:06.672Z,20.50
2022-08-10T07:20:06.622Z,20.57
2022-08-10T07:21:06.594Z,20.64
2022-08-10T07:22:06.772Z,20.70
2022-08-10T07:23:55.476Z,20.76
2022-08-10T07:24:08.009Z,20.85
2022-08-10T07:25:06.918Z,20.92
2022-08-10T07:26:06.701Z,20.98
2022-08-10T07:27:06.601Z,21.09
2022-08-10T07:28:06.588Z,21.12
2022-08-10T07:29:06.526Z,21.17
2022-08-10T07:30:06.459Z,21.25
2022-08-10T07:31:55.142Z,21.29
2022-08-10T07:32:07.529Z,21.34
2022-08-10T07:33:06.480Z,21.40
2022-08-10T07:34:07.441Z,21.46
2022-08-10T07:35:06.435Z,21.47
2022-08-10T07:36:06.436Z,21.54
2022-08-10T07:37:06.427Z,21.59
2022-08-10T07:38:06.469Z,21.68
2022-08-10T07:39:06.692Z,21.72
2022-08-10T07:40:06.544Z,21.79
2022-08-10T07:41:06.412Z,21.86
2022-08-10T07:42:06.392Z,21.98
2022-08-10T07:43:06.363Z,22.06
2022-08-10T07:44:06.425Z,22.02
2022-08-10T07:45:06.300Z,22.07
2022-08-10T07:46:06.362Z,22.07
2022-08-10T07:47:06.332Z,22.14
2022-08-10T07:48:07.979Z,22.21
2022-08-10T07:49:15.406Z,22.33
2022-08-10T07:50:07.270Z,22.43
2022-08-10T07:51:06.257Z,22.47
2022-08-10T07:52:06.283Z,22.52
2022-08-10T07:53:06.340Z,22.57
2022-08-10T07:54:06.503Z,22.61
2022-08-10T07:55:06.318Z,22.64
2022-08-10T07:56:20.846Z,22.67
2022-08-10T07:57:07.156Z,22.64
2022-08-10T07:58:06.196Z,22.67
2022-08-10T07:59:06.161Z,22.68
2022-08-10T08:00:06.199Z,22.75
2022-08-10T08:01:06.468Z,22.79
2022-08-10T08:02:06.508Z,22.86
2022-08-10T08:03:06.494Z,22.94
2022-08-10T08:04:10.600Z,22.97
2022-08-10T08:05:07.112Z,23.02
2022-08-10T08:06:12.021Z,23.12
2022-08-10T08:07:07.078Z,23.17
2022-08-10T08:08:07.164Z,23.22
2022-08-10T08:09:06.107Z,23.25
2022-08-10T08:10:06.119Z,23.28
2022-08-10T08:11:06.233Z,23.31
2022-08-10T08:12:06.342Z,23.36
2022-08-10T08:13:06.020Z,23.38
2022-08-10T08:14:06.040Z,23.40
2022-08-10T08:15:14.755Z,23.47
2022-08-10T08:16:16.986Z,23.54
2022-08-10T08:17:06.974Z,23.57
2022-08-10T08:18:05.963Z,23.63
2022-08-10T08:19:37.319Z,23.63
2022-08-10T08:20:07.470Z,23.69
2022-08-10T08:21:16.030Z,23.73
2022-08-10T08:24:05.154Z,23.75
2022-08-10T08:24:07.234Z,23.75
2022-08-10T08:24:30.064Z,23.75
2022-08-10T08:25:10.992Z,23.70
2022-08-10T08:26:06.828Z,23.75
2022-08-10T08:27:05.838Z,23.78
2022-08-10T08:28:05.813Z,23.78
2022-08-10T08:29:05.778Z,23.79
2022-08-10T08:30:05.775Z,23.76
2022-08-10T08:31:05.761Z,23.79
2022-08-10T08:32:05.752Z,23.78
2022-08-10T08:33:05.734Z,23.80
2022-08-10T08:34:05.730Z,23.88
2022-08-10T08:35:05.721Z,23.97
2022-08-10T08:36:05.706Z,24.09
2022-08-10T08:37:05.699Z,24.18
2022-08-10T08:38:33.028Z,24.30
2022-08-10T08:39:06.687Z,24.47
2022-08-10T08:40:05.682Z,24.60
2022-08-10T08:41:05.651Z,24.67
2022-08-10T08:42:05.640Z,24.81
2022-08-10T08:43:05.630Z,24.90
2022-08-10T08:44:05.615Z,24.98
2022-08-10T08:45:05.646Z,24.99
2022-08-10T08:46:05.601Z,25.03
2022-08-10T08:48:04.216Z,25.06
2022-08-10T08:48:06.682Z,25.10
2022-08-10T08:49:05.561Z,25.06
2022-08-10T08:50:09.669Z,25.05
2022-08-10T08:51:08.477Z,25.03
2022-08-10T08:52:09.442Z,25.09
2022-08-10T08:53:20.962Z,25.21
2022-08-10T08:54:06.782Z,25.33
2022-08-10T08:55:05.519Z,25.42
2022-08-10T08:56:07.230Z,25.50
2022-08-10T08:57:05.477Z,25.54
2022-08-10T08:58:05.470Z,25.62
2022-08-10T08:59:05.451Z,25.69
2022-08-10T09:00:05.448Z,25.65
2022-08-10T09:01:05.435Z,25.65
2022-08-10T09:02:05.567Z,25.73
2022-08-10T09:03:05.421Z,25.80
2022-08-10T09:04:05.401Z,25.88
2022-08-10T09:05:06.404Z,25.97
2022-08-10T09:06:05.399Z,26.01
2022-08-10T09:07:05.370Z,26.06
2022-08-10T09:08:05.362Z,26.06
2022-08-10T09:09:05.348Z,26.15
2022-08-10T09:10:05.338Z,26.20
2022-08-10T09:11:05.334Z,26.29
2022-08-10T09:12:05.321Z,26.33
2022-08-10T09:13:05.319Z,26.43
2022-08-10T09:14:05.290Z,26.48
2022-08-10T09:15:05.279Z,26.48
2022-08-10T09:16:05.281Z,26.52
2022-08-10T09:17:05.256Z,26.57
2022-08-10T09:18:05.242Z,26.65
2022-08-10T09:19:05.240Z,26.69
2022-08-10T09:20:05.225Z,26.75
2022-08-10T09:21:05.217Z,26.73
2022-08-10T09:22:17.773Z,26.77
2022-08-10T09:23:06.212Z,26.81
2022-08-10T09:24:06.345Z,26.85
2022-08-10T09:25:05.342Z,26.89
2022-08-10T09:26:05.162Z,26.92
2022-08-10T09:27:05.183Z,26.91
2022-08-10T09:28:05.139Z,26.94
2022-08-10T09:29:13.281Z,26.91
2022-08-10T09:30:06.114Z,26.92
2022-08-10T09:31:22.923Z,26.99
2022-08-10T09:36:17.286Z,27.00
2022-08-10T09:36:20.167Z,26.97
2022-08-10T09:36:21.066Z,27.04
2022-08-10T09:36:22.105Z,26.97
2022-08-10T09:36:24.059Z,26.94
2022-08-10T09:37:06.047Z,27.12
2022-08-10T09:38:05.040Z,27.14
2022-08-10T09:39:05.070Z,27.17
2022-08-10T09:40:57.563Z,27.14
2022-08-10T09:41:12.859Z,27.21
2022-08-10T09:42:06.009Z,27.22
2022-08-10T09:43:24.963Z,27.22
2022-08-10T09:44:05.979Z,27.27
2022-08-10T09:45:04.967Z,27.22
2022-08-10T09:46:04.949Z,27.18
2022-08-10T09:47:04.945Z,27.19
2022-08-10T09:48:04.936Z,27.24
2022-08-10T09:49:04.911Z,27.31
2022-08-10T09:50:05.319Z,27.37
2022-08-10T09:52:05.873Z,27.47
2022-08-10T09:53:04.876Z,27.50
2022-08-10T09:54:04.864Z,27.62
2022-08-10T09:55:04.856Z,27.66
2022-08-10T09:56:19.294Z,27.72
2022-08-10T09:57:44.831Z,27.85
2022-08-10T09:58:05.839Z,28.00
2022-08-10T09:59:27.262Z,28.09
2022-08-10T10:00:05.799Z,28.25
2022-08-10T10:01:04.795Z,28.34
2022-08-10T10:02:04.771Z,28.46
2022-08-10T10:03:04.831Z,28.66
2022-08-10T10:04:04.763Z,28.76
2022-08-10T10:05:04.805Z,28.81
2022-08-10T10:06:04.740Z,28.90
2022-08-10T10:07:04.733Z,29.09
2022-08-10T10:08:04.708Z,29.23
2022-08-10T10:09:09.987Z,29.43
2022-08-10T10:10:05.698Z,29.74
2022-08-10T10:11:04.696Z,30.00
2022-08-10T10:12:09.142Z,30.22
2022-08-10T10:13:05.656Z,30.46
2022-08-10T10:14:08.189Z,30.57
2022-08-10T10:15:05.644Z,30.65
2022-08-10T10:16:04.638Z,30.83
2022-08-10T10:17:04.617Z,31.14
2022-08-10T10:18:04.615Z,31.50
2022-08-10T10:19:04.596Z,31.75
2022-08-10T10:20:04.609Z,31.66
2022-08-10T10:21:04.573Z,31.57
2022-08-10T10:22:04.563Z,31.50
2022-08-10T10:23:04.564Z,31.44
2022-08-10T10:24:19.958Z,31.51
2022-08-10T10:25:20.857Z,31.07
2022-08-10T10:26:12.992Z,30.94
2022-08-10T10:27:05.548Z,31.13
2022-08-10T10:28:05.512Z,31.13
2022-08-10T10:29:30.756Z,31.34
2022-08-10T10:30:05.486Z,31.68
2022-08-10T10:31:04.468Z,32.06
2022-08-10T10:32:05.447Z,32.03
2022-08-10T10:33:04.446Z,31.65
2022-08-10T10:34:04.426Z,31.48
2022-08-10T10:35:04.421Z,31.35
2022-08-10T10:36:04.419Z,31.16
2022-08-10T10:37:04.406Z,31.07
2022-08-10T10:38:04.458Z,30.84
2022-08-10T10:39:04.395Z,30.99
2022-08-10T10:40:05.331Z,30.94
2022-08-10T10:41:04.360Z,31.10
2022-08-10T10:42:05.091Z,31.07
2022-08-10T10:43:04.352Z,30.84
2022-08-10T10:44:04.333Z,30.79
2022-08-10T10:45:04.331Z,30.89
2022-08-10T10:46:04.312Z,30.83
2022-08-10T10:47:04.293Z,30.79
2022-08-10T10:48:04.293Z,30.73
2022-08-10T10:49:04.362Z,30.60
2022-08-10T10:50:04.284Z,30.57
2022-08-10T10:51:09.863Z,30.62
2022-08-10T10:52:05.265Z,30.72
2022-08-10T10:53:04.232Z,30.51
2022-08-10T10:54:04.223Z,30.45
2022-08-10T10:55:04.235Z,30.45
2022-08-10T10:56:14.200Z,30.47
2022-08-10T10:57:05.196Z,30.29
2022-08-10T10:58:04.686Z,30.20
2022-08-10T10:59:16.142Z,30.15
2022-08-10T11:00:05.159Z,29.97
2022-08-10T11:01:04.199Z,29.65
2022-08-10T11:02:04.147Z,29.42
2022-08-10T11:03:04.139Z,29.41
2022-08-10T11:04:04.147Z,29.24
2022-08-10T11:05:04.247Z,29.26
2022-08-10T11:06:04.111Z,29.36
2022-08-10T11:07:04.103Z,29.43
2022-08-10T11:08:04.089Z,29.51
2022-08-10T11:09:04.080Z,29.57
2022-08-10T11:10:16.522Z,29.63
2022-08-10T11:11:13.068Z,29.73
2022-08-10T11:12:05.111Z,29.76
2022-08-10T11:14:23.019Z,29.86
2022-08-10T11:14:25.577Z,29.86
2022-08-10T11:15:05.010Z,29.94
2022-08-10T11:16:04.019Z,29.87
2022-08-10T11:17:04.007Z,30.04
2022-08-10T11:18:03.985Z,30.17
2022-08-10T11:19:03.983Z,30.24
2022-08-10T11:20:04.341Z,30.29
2022-08-10T11:21:03.959Z,30.35
2022-08-10T11:22:03.944Z,30.39
2022-08-10T11:23:03.950Z,30.27
2022-08-10T11:24:48.538Z,30.26
2022-08-10T11:25:04.936Z,30.29
2022-08-10T11:26:03.914Z,30.43
2022-08-10T11:27:03.921Z,30.58
2022-08-10T11:28:03.896Z,30.64
2022-08-10T11:29:03.928Z,30.47
2022-08-10T11:30:03.870Z,30.39
2022-08-10T11:31:03.851Z,30.45
2022-08-10T11:32:03.850Z,30.53
2022-08-10T11:33:03.841Z,30.43
2022-08-10T11:34:48.342Z,30.46
2022-08-10T11:35:11.688Z,30.47
2022-08-10T11:36:04.812Z,30.49
2022-08-10T11:37:03.815Z,30.47
2022-08-10T11:38:32.112Z,30.38
2022-08-10T11:39:14.530Z,30.47
2022-08-10T11:40:04.824Z,30.65
2022-08-10T11:41:14.539Z,30.89
2022-08-10T11:42:09.792Z,30.95
2022-08-10T11:43:04.746Z,30.99
2022-08-10T11:44:03.739Z,31.06
2022-08-10T11:45:03.727Z,30.94
2022-08-10T11:46:08.024Z,30.91
2022-08-10T11:47:03.739Z,30.92
2022-08-10T11:48:03.689Z,30.98
2022-08-10T11:49:04.145Z,31.07
2022-08-10T11:50:03.671Z,31.23
2022-08-10T11:51:03.651Z,31.28
2022-08-10T11:52:03.653Z,31.34
2022-08-10T11:53:03.644Z,31.28
2022-08-10T11:54:03.636Z,31.16
2022-08-10T11:55:03.618Z,31.09
2022-08-10T11:56:03.624Z,31.20
2022-08-10T11:57:04.604Z,31.29
2022-08-10T11:58:03.589Z,31.34
2022-08-10T11:59:16.782Z,31.44
2022-08-10T12:00:06.006Z,31.58
2022-08-10T12:01:03.557Z,31.65
2022-08-10T12:02:03.600Z,31.70
2022-08-10T12:03:03.695Z,31.69
2022-08-10T12:04:03.526Z,31.66
2022-08-10T12:05:03.522Z,31.78
2022-08-10T12:06:03.517Z,31.99
2022-08-10T12:07:03.499Z,32.21
2022-08-10T12:10:06.238Z,32.14
2022-08-10T12:10:11.174Z,32.15
2022-08-10T12:10:13.503Z,32.29
2022-08-10T12:11:04.476Z,32.23
2022-08-10T12:12:03.455Z,32.23
2022-08-10T12:13:03.438Z,32.40
2022-08-10T12:14:21.954Z,32.57
2022-08-10T12:15:04.426Z,32.48
2022-08-10T12:16:05.716Z,32.26
2022-08-10T12:17:03.410Z,32.04
2022-08-10T12:18:03.388Z,31.88
2022-08-10T12:19:03.411Z,31.86
2022-08-10T12:20:03.986Z,31.89
2022-08-10T12:21:03.380Z,32.00
2022-08-10T12:22:06.042Z,32.14
2022-08-10T12:23:03.342Z,32.37
2022-08-10T12:24:03.635Z,32.67
2022-08-10T12:25:03.345Z,32.97
2022-08-10T12:26:03.316Z,32.94
2022-08-10T12:27:03.327Z,33.00
2022-08-10T12:28:03.302Z,33.04
2022-08-10T12:29:03.283Z,33.26
2022-08-10T12:30:03.282Z,33.39
2022-08-10T12:31:03.304Z,33.23
2022-08-10T12:32:03.251Z,33.19
2022-08-10T12:33:03.264Z,33.21
2022-08-10T12:34:03.377Z,33.11
2022-08-10T12:35:03.238Z,33.16
2022-08-10T12:36:17.991Z,33.31
2022-08-10T12:37:04.216Z,33.21
2022-08-10T12:38:03.201Z,33.19
2022-08-10T12:39:04.137Z,33.12
2022-08-10T12:40:33.383Z,33.18
2022-08-10T12:41:04.173Z,33.41
2022-08-10T12:42:03.262Z,33.78
2022-08-10T12:44:03.865Z,33.93
2022-08-10T12:44:08.661Z,33.93
2022-08-10T12:45:03.132Z,34.08
2022-08-10T12:46:06.461Z,33.88
2022-08-10T12:47:10.626Z,33.87
2022-08-10T12:48:04.108Z,33.75
2022-08-10T12:49:03.106Z,33.86
2022-08-10T12:50:30.264Z,33.84
2022-08-10T12:51:04.080Z,33.78
2022-08-10T12:52:03.066Z,33.78
2022-08-10T12:53:04.824Z,33.60